sensor_id;sensor_type;location;lat;lon;timestamp;temperature;humidity
21487;DHT22;10905;50.822;4.336;2023-06-10T00:00:43;24.00;98.30
21487;DHT22;10905;50.822;4.336;2023-06-10T00:03:09;23.90;98.60
21487;DHT22;10905;50.822;4.336;2023-06-10T00:05:35;23.90;98.60
21487;DHT22;10905;50.822;4.336;2023-06-10T00:08:01;23.90;98.90
21487;DHT22;10905;50.822;4.336;2023-06-10T00:10:35;23.90;99.10
21487;DHT22;10905;50.822;4.336;2023-06-10T00:13:02;23.90;99.40
21487;DHT22;10905;50.822;4.336;2023-06-10T00:15:29;23.90;99.70
21487;DHT22;10905;50.822;4.336;2023-06-10T00:17:54;23.80;99.90
21487;DHT22;10905;50.822;4.336;2023-06-10T00:20:20;23.70;99.90
21487;DHT22;10905;50.822;4.336;2023-06-10T00:22:47;23.50;99.90
21487;DHT22;10905;50.822;4.336;2023-06-10T00:25:13;23.50;99.90
21487;DHT22;10905;50.822;4.336;2023-06-10T00:27:39;23.50;99.90
21487;DHT22;10905;50.822;4.336;2023-06-10T00:30:05;23.50;99.90
21487;DHT22;10905;50.822;4.336;2023-06-10T00:32:32;23.50;99.90
21487;DHT22;10905;50.822;4.336;2023-06-10T00:34:58;23.60;99.90
21487;DHT22;10905;50.822;4.336;2023-06-10T00:37:23;23.50;99.90
21487;DHT22;10905;50.822;4.336;2023-06-10T00:39:49;23.50;99.90
21487;DHT22;10905;50.822;4.336;2023-06-10T00:42:14;23.50;99.90
21487;DHT22;10905;50.822;4.336;2023-06-10T00:44:40;23.50;99.90
21487;DHT22;10905;50.822;4.336;2023-06-10T00:47:05;23.40;99.90
21487;DHT22;10905;50.822;4.336;2023-06-10T00:49:31;23.30;99.90
21487;DHT22;10905;50.822;4.336;2023-06-10T00:51:57;23.30;99.90
21487;DHT22;10905;50.822;4.336;2023-06-10T00:54:23;23.30;99.90
21487;DHT22;10905;50.822;4.336;2023-06-10T00:56:49;23.30;99.90
21487;DHT22;10905;50.822;4.336;2023-06-10T00:59:15;23.40;99.90
21487;DHT22;10905;50.822;4.336;2023-06-10T01:01:41;23.30;99.90
21487;DHT22;10905;50.822;4.336;2023-06-10T01:04:08;23.20;99.90
21487;DHT22;10905;50.822;4.336;2023-06-10T01:06:47;23.30;99.90
21487;DHT22;10905;50.822;4.336;2023-06-10T01:11:43;23.30;99.90
21487;DHT22;10905;50.822;4.336;2023-06-10T01:14:12;23.20;99.90
21487;DHT22;10905;50.822;4.336;2023-06-10T01:16:39;23.20;99.90
21487;DHT22;10905;50.822;4.336;2023-06-10T01:19:06;23.30;99.90
21487;DHT22;10905;50.822;4.336;2023-06-10T01:21:32;23.30;99.90
21487;DHT22;10905;50.822;4.336;2023-06-10T01:23:58;23.20;99.90
21487;DHT22;10905;50.822;4.336;2023-06-10T01:26:25;23.10;99.90
21487;DHT22;10905;50.822;4.336;2023-06-10T01:31:36;23.00;99.90
21487;DHT22;10905;50.822;4.336;2023-06-10T01:34:07;23.00;99.90
21487;DHT22;10905;50.822;4.336;2023-06-10T01:36:34;22.90;99.90
21487;DHT22;10905;50.822;4.336;2023-06-10T01:39:00;23.00;99.90
21487;DHT22;10905;50.822;4.336;2023-06-10T01:41:26;23.00;99.90
21487;DHT22;10905;50.822;4.336;2023-06-10T01:43:51;23.00;99.90
21487;DHT22;10905;50.822;4.336;2023-06-10T01:46:17;23.00;99.90
21487;DHT22;10905;50.822;4.336;2023-06-10T01:48:46;23.00;99.90
21487;DHT22;10905;50.822;4.336;2023-06-10T01:51:12;23.00;99.90
21487;DHT22;10905;50.822;4.336;2023-06-10T01:53:37;22.90;99.90
21487;DHT22;10905;50.822;4.336;2023-06-10T01:56:03;22.90;99.90
21487;DHT22;10905;50.822;4.336;2023-06-10T01:58:28;22.80;99.90
21487;DHT22;10905;50.822;4.336;2023-06-10T02:00:54;22.80;99.90
21487;DHT22;10905;50.822;4.336;2023-06-10T02:03:19;22.90;99.90
21487;DHT22;10905;50.822;4.336;2023-06-10T02:05:45;23.00;99.90
21487;DHT22;10905;50.822;4.336;2023-06-10T02:08:10;22.90;99.90
21487;DHT22;10905;50.822;4.336;2023-06-10T02:10:36;22.90;99.90
21487;DHT22;10905;50.822;4.336;2023-06-10T02:13:01;22.90;99.90
21487;DHT22;10905;50.822;4.336;2023-06-10T02:15:27;22.80;99.90
21487;DHT22;10905;50.822;4.336;2023-06-10T02:17:53;22.70;99.90
21487;DHT22;10905;50.822;4.336;2023-06-10T02:20:19;22.70;99.90
21487;DHT22;10905;50.822;4.336;2023-06-10T02:22:47;22.60;99.90
21487;DHT22;10905;50.822;4.336;2023-06-10T02:25:13;22.60;99.90
21487;DHT22;10905;50.822;4.336;2023-06-10T02:27:38;22.60;99.90
21487;DHT22;10905;50.822;4.336;2023-06-10T02:30:04;22.60;99.90
21487;DHT22;10905;50.822;4.336;2023-06-10T02:32:30;22.60;99.90
21487;DHT22;10905;50.822;4.336;2023-06-10T02:34:55;22.50;99.90
21487;DHT22;10905;50.822;4.336;2023-06-10T02:37:21;22.50;99.90
21487;DHT22;10905;50.822;4.336;2023-06-10T02:39:46;22.60;99.90
21487;DHT22;10905;50.822;4.336;2023-06-10T02:42:12;22.50;99.90
21487;DHT22;10905;50.822;4.336;2023-06-10T02:44:37;22.50;99.90
21487;DHT22;10905;50.822;4.336;2023-06-10T02:47:03;22.50;99.90
21487;DHT22;10905;50.822;4.336;2023-06-10T02:49:29;22.40;99.90
21487;DHT22;10905;50.822;4.336;2023-06-10T02:51:54;22.40;99.90
21487;DHT22;10905;50.822;4.336;2023-06-10T02:54:25;22.40;99.90
21487;DHT22;10905;50.822;4.336;2023-06-10T02:56:51;22.30;99.90
21487;DHT22;10905;50.822;4.336;2023-06-10T02:59:16;22.30;99.90
21487;DHT22;10905;50.822;4.336;2023-06-10T03:01:42;22.30;99.90
21487;DHT22;10905;50.822;4.336;2023-06-10T03:04:07;22.30;99.90
21487;DHT22;10905;50.822;4.336;2023-06-10T03:06:34;22.30;99.90
21487;DHT22;10905;50.822;4.336;2023-06-10T03:09:01;22.30;99.90
21487;DHT22;10905;50.822;4.336;2023-06-10T03:11:26;22.30;99.90
21487;DHT22;10905;50.822;4.336;2023-06-10T03:13:52;22.30;99.90
21487;DHT22;10905;50.822;4.336;2023-06-10T03:16:19;22.20;99.90
21487;DHT22;10905;50.822;4.336;2023-06-10T03:18:44;22.20;99.90
21487;DHT22;10905;50.822;4.336;2023-06-10T03:21:10;22.20;99.90
21487;DHT22;10905;50.822;4.336;2023-06-10T03:23:36;22.20;99.90
21487;DHT22;10905;50.822;4.336;2023-06-10T03:26:02;22.10;99.90
21487;DHT22;10905;50.822;4.336;2023-06-10T03:28:27;22.10;99.90
21487;DHT22;10905;50.822;4.336;2023-06-10T03:30:53;22.10;99.90
21487;DHT22;10905;50.822;4.336;2023-06-10T03:33:18;22.10;99.90
21487;DHT22;10905;50.822;4.336;2023-06-10T03:35:44;22.20;99.90
21487;DHT22;10905;50.822;4.336;2023-06-10T03:38:09;22.10;99.90
21487;DHT22;10905;50.822;4.336;2023-06-10T03:40:35;22.00;99.90
21487;DHT22;10905;50.822;4.336;2023-06-10T03:43:00;22.00;99.90
21487;DHT22;10905;50.822;4.336;2023-06-10T03:45:26;22.10;99.90
21487;DHT22;10905;50.822;4.336;2023-06-10T03:47:53;22.00;99.90
21487;DHT22;10905;50.822;4.336;2023-06-10T03:50:19;21.90;99.90
21487;DHT22;10905;50.822;4.336;2023-06-10T03:52:44;21.90;99.90
21487;DHT22;10905;50.822;4.336;2023-06-10T03:55:10;21.90;99.90
21487;DHT22;10905;50.822;4.336;2023-06-10T03:57:39;21.90;99.90
21487;DHT22;10905;50.822;4.336;2023-06-10T04:00:04;21.90;99.90
21487;DHT22;10905;50.822;4.336;2023-06-10T04:02:39;21.80;99.90
21487;DHT22;10905;50.822;4.336;2023-06-10T04:05:15;21.80;99.90
21487;DHT22;10905;50.822;4.336;2023-06-10T04:07:41;21.80;99.90
21487;DHT22;10905;50.822;4.336;2023-06-10T04:10:08;21.70;99.90
21487;DHT22;10905;50.822;4.336;2023-06-10T04:12:34;21.80;99.90
21487;DHT22;10905;50.822;4.336;2023-06-10T04:15:00;21.80;99.90
21487;DHT22;10905;50.822;4.336;2023-06-10T04:17:25;21.90;99.90
21487;DHT22;10905;50.822;4.336;2023-06-10T04:19:51;21.90;99.90
21487;DHT22;10905;50.822;4.336;2023-06-10T04:22:17;21.80;99.90
21487;DHT22;10905;50.822;4.336;2023-06-10T04:24:43;21.70;99.90
21487;DHT22;10905;50.822;4.336;2023-06-10T04:27:08;21.70;99.90
21487;DHT22;10905;50.822;4.336;2023-06-10T04:29:34;21.70;99.90
21487;DHT22;10905;50.822;4.336;2023-06-10T04:31:59;21.70;99.90
21487;DHT22;10905;50.822;4.336;2023-06-10T04:34:26;21.50;99.90
21487;DHT22;10905;50.822;4.336;2023-06-10T04:36:52;21.60;99.90
21487;DHT22;10905;50.822;4.336;2023-06-10T04:39:18;21.70;99.90
21487;DHT22;10905;50.822;4.336;2023-06-10T04:41:43;21.60;99.90
21487;DHT22;10905;50.822;4.336;2023-06-10T04:44:09;21.70;99.90
21487;DHT22;10905;50.822;4.336;2023-06-10T04:46:36;21.70;99.90
21487;DHT22;10905;50.822;4.336;2023-06-10T04:49:01;21.80;99.90
21487;DHT22;10905;50.822;4.336;2023-06-10T04:51:27;21.90;99.90
21487;DHT22;10905;50.822;4.336;2023-06-10T04:53:53;21.80;99.90
21487;DHT22;10905;50.822;4.336;2023-06-10T04:56:18;21.80;99.90
21487;DHT22;10905;50.822;4.336;2023-06-10T04:58:45;21.80;99.90
21487;DHT22;10905;50.822;4.336;2023-06-10T05:01:10;21.80;99.90
21487;DHT22;10905;50.822;4.336;2023-06-10T05:03:36;21.80;99.90
21487;DHT22;10905;50.822;4.336;2023-06-10T05:06:01;21.80;99.90
21487;DHT22;10905;50.822;4.336;2023-06-10T05:08:27;21.90;99.90
21487;DHT22;10905;50.822;4.336;2023-06-10T05:10:52;21.80;99.90
21487;DHT22;10905;50.822;4.336;2023-06-10T05:13:18;22.00;99.90
21487;DHT22;10905;50.822;4.336;2023-06-10T05:15:43;21.90;99.90
21487;DHT22;10905;50.822;4.336;2023-06-10T05:18:10;21.90;99.90
21487;DHT22;10905;50.822;4.336;2023-06-10T05:20:37;22.00;99.90
21487;DHT22;10905;50.822;4.336;2023-06-10T05:23:02;22.00;99.90
21487;DHT22;10905;50.822;4.336;2023-06-10T05:25:30;22.00;99.90
21487;DHT22;10905;50.822;4.336;2023-06-10T05:27:55;22.00;99.90
21487;DHT22;10905;50.822;4.336;2023-06-10T05:30:21;22.10;99.90
21487;DHT22;10905;50.822;4.336;2023-06-10T05:32:47;22.20;99.90
21487;DHT22;10905;50.822;4.336;2023-06-10T05:35:13;22.30;99.90
21487;DHT22;10905;50.822;4.336;2023-06-10T05:37:39;22.40;99.90
21487;DHT22;10905;50.822;4.336;2023-06-10T05:40:04;22.50;99.90
21487;DHT22;10905;50.822;4.336;2023-06-10T05:42:30;22.50;99.90
21487;DHT22;10905;50.822;4.336;2023-06-10T05:44:56;22.60;99.90
21487;DHT22;10905;50.822;4.336;2023-06-10T05:47:21;22.70;99.90
21487;DHT22;10905;50.822;4.336;2023-06-10T05:49:46;22.80;99.90
21487;DHT22;10905;50.822;4.336;2023-06-10T05:52:14;22.80;99.90
21487;DHT22;10905;50.822;4.336;2023-06-10T05:54:40;22.80;99.90
21487;DHT22;10905;50.822;4.336;2023-06-10T05:57:05;22.90;99.90
21487;DHT22;10905;50.822;4.336;2023-06-10T05:59:31;22.90;99.90
21487;DHT22;10905;50.822;4.336;2023-06-10T06:01:56;23.00;99.90
21487;DHT22;10905;50.822;4.336;2023-06-10T06:04:22;23.00;99.90
21487;DHT22;10905;50.822;4.336;2023-06-10T06:06:47;23.10;99.90
21487;DHT22;10905;50.822;4.336;2023-06-10T06:09:13;23.00;99.90
21487;DHT22;10905;50.822;4.336;2023-06-10T06:11:41;23.10;99.90
21487;DHT22;10905;50.822;4.336;2023-06-10T06:14:07;23.10;99.90
21487;DHT22;10905;50.822;4.336;2023-06-10T06:16:32;23.20;99.90
21487;DHT22;10905;50.822;4.336;2023-06-10T06:18:58;23.30;99.90
21487;DHT22;10905;50.822;4.336;2023-06-10T06:21:23;23.40;99.90
21487;DHT22;10905;50.822;4.336;2023-06-10T06:23:49;23.40;99.90
21487;DHT22;10905;50.822;4.336;2023-06-10T06:26:14;23.60;99.90
21487;DHT22;10905;50.822;4.336;2023-06-10T06:28:40;23.50;99.90
21487;DHT22;10905;50.822;4.336;2023-06-10T06:31:06;23.60;99.90
21487;DHT22;10905;50.822;4.336;2023-06-10T06:33:32;23.70;99.90
21487;DHT22;10905;50.822;4.336;2023-06-10T06:35:57;23.80;99.90
21487;DHT22;10905;50.822;4.336;2023-06-10T06:38:23;23.80;99.90
21487;DHT22;10905;50.822;4.336;2023-06-10T06:40:48;23.80;99.90
21487;DHT22;10905;50.822;4.336;2023-06-10T06:43:14;23.80;99.90
21487;DHT22;10905;50.822;4.336;2023-06-10T06:45:39;23.90;99.90
21487;DHT22;10905;50.822;4.336;2023-06-10T06:48:05;23.90;99.90
21487;DHT22;10905;50.822;4.336;2023-06-10T06:50:30;23.90;99.90
21487;DHT22;10905;50.822;4.336;2023-06-10T06:52:56;24.00;99.90
21487;DHT22;10905;50.822;4.336;2023-06-10T06:55:21;24.10;99.90
21487;DHT22;10905;50.822;4.336;2023-06-10T06:57:47;24.10;99.90
21487;DHT22;10905;50.822;4.336;2023-06-10T07:00:12;24.20;99.90
21487;DHT22;10905;50.822;4.336;2023-06-10T07:02:38;24.20;99.90
21487;DHT22;10905;50.822;4.336;2023-06-10T07:05:04;24.30;99.90
21487;DHT22;10905;50.822;4.336;2023-06-10T07:07:29;24.30;99.90
21487;DHT22;10905;50.822;4.336;2023-06-10T07:09:55;24.40;99.90
21487;DHT22;10905;50.822;4.336;2023-06-10T07:12:20;24.60;99.90
21487;DHT22;10905;50.822;4.336;2023-06-10T07:14:49;24.70;99.90
21487;DHT22;10905;50.822;4.336;2023-06-10T07:17:15;24.80;99.90
21487;DHT22;10905;50.822;4.336;2023-06-10T07:19:40;24.90;99.90
21487;DHT22;10905;50.822;4.336;2023-06-10T07:22:06;25.00;99.90
21487;DHT22;10905;50.822;4.336;2023-06-10T07:24:31;25.10;99.90
21487;DHT22;10905;50.822;4.336;2023-06-10T07:26:57;25.10;99.90
21487;DHT22;10905;50.822;4.336;2023-06-10T07:29:22;25.20;99.90
21487;DHT22;10905;50.822;4.336;2023-06-10T07:31:48;25.30;99.90
21487;DHT22;10905;50.822;4.336;2023-06-10T07:34:13;25.40;99.90
21487;DHT22;10905;50.822;4.336;2023-06-10T07:36:39;25.40;99.90
21487;DHT22;10905;50.822;4.336;2023-06-10T07:39:04;25.50;99.90
21487;DHT22;10905;50.822;4.336;2023-06-10T07:41:30;25.50;99.90
21487;DHT22;10905;50.822;4.336;2023-06-10T07:43:56;25.50;99.90
21487;DHT22;10905;50.822;4.336;2023-06-10T07:46:21;25.50;99.90
21487;DHT22;10905;50.822;4.336;2023-06-10T07:48:47;25.60;99.90
21487;DHT22;10905;50.822;4.336;2023-06-10T07:51:14;25.70;99.90
21487;DHT22;10905;50.822;4.336;2023-06-10T07:53:41;25.80;99.90
21487;DHT22;10905;50.822;4.336;2023-06-10T07:56:06;25.80;99.90
21487;DHT22;10905;50.822;4.336;2023-06-10T07:58:32;25.90;99.90
21487;DHT22;10905;50.822;4.336;2023-06-10T08:00:57;26.00;99.90
21487;DHT22;10905;50.822;4.336;2023-06-10T08:03:23;26.10;99.90
21487;DHT22;10905;50.822;4.336;2023-06-10T08:05:48;26.10;99.90
21487;DHT22;10905;50.822;4.336;2023-06-10T08:08:14;26.00;99.90
21487;DHT22;10905;50.822;4.336;2023-06-10T08:10:39;26.10;99.90
21487;DHT22;10905;50.822;4.336;2023-06-10T08:13:05;26.20;99.90
21487;DHT22;10905;50.822;4.336;2023-06-10T08:15:30;26.30;99.90
21487;DHT22;10905;50.822;4.336;2023-06-10T08:17:56;26.40;99.90
21487;DHT22;10905;50.822;4.336;2023-06-10T08:20:24;26.40;99.90
21487;DHT22;10905;50.822;4.336;2023-06-10T08:22:50;26.50;99.90
21487;DHT22;10905;50.822;4.336;2023-06-10T08:25:15;26.60;99.90
21487;DHT22;10905;50.822;4.336;2023-06-10T08:27:41;26.70;99.90
21487;DHT22;10905;50.822;4.336;2023-06-10T08:30:07;26.80;99.90
21487;DHT22;10905;50.822;4.336;2023-06-10T08:32:33;26.90;99.90
21487;DHT22;10905;50.822;4.336;2023-06-10T08:34:58;26.90;99.90
21487;DHT22;10905;50.822;4.336;2023-06-10T08:37:24;26.90;99.90
21487;DHT22;10905;50.822;4.336;2023-06-10T08:39:49;26.90;99.80
21487;DHT22;10905;50.822;4.336;2023-06-10T08:44:43;27.00;99.90
21487;DHT22;10905;50.822;4.336;2023-06-10T08:47:14;27.00;99.50
21487;DHT22;10905;50.822;4.336;2023-06-10T08:49:44;27.10;99.90
21487;DHT22;10905;50.822;4.336;2023-06-10T08:52:20;27.10;99.20
21487;DHT22;10905;50.822;4.336;2023-06-10T08:54:49;27.20;99.20
21487;DHT22;10905;50.822;4.336;2023-06-10T08:57:16;27.30;98.60
21487;DHT22;10905;50.822;4.336;2023-06-10T08:59:42;27.40;99.10
21487;DHT22;10905;50.822;4.336;2023-06-10T09:02:08;27.40;99.40
21487;DHT22;10905;50.822;4.336;2023-06-10T09:04:34;27.40;98.40
21487;DHT22;10905;50.822;4.336;2023-06-10T09:07:00;27.30;99.10
21487;DHT22;10905;50.822;4.336;2023-06-10T09:09:26;27.40;98.90
21487;DHT22;10905;50.822;4.336;2023-06-10T09:11:53;27.50;98.40
21487;DHT22;10905;50.822;4.336;2023-06-10T09:14:18;27.70;98.90
21487;DHT22;10905;50.822;4.336;2023-06-10T09:16:44;27.80;98.10
21487;DHT22;10905;50.822;4.336;2023-06-10T09:19:12;27.80;97.60
21487;DHT22;10905;50.822;4.336;2023-06-10T09:21:37;27.90;98.30
21487;DHT22;10905;50.822;4.336;2023-06-10T09:24:03;28.00;97.20
21487;DHT22;10905;50.822;4.336;2023-06-10T09:26:30;28.20;97.00
21487;DHT22;10905;50.822;4.336;2023-06-10T09:29:05;28.20;97.30
21487;DHT22;10905;50.822;4.336;2023-06-10T09:31:32;28.10;97.30
21487;DHT22;10905;50.822;4.336;2023-06-10T09:34:09;28.10;97.00
21487;DHT22;10905;50.822;4.336;2023-06-10T09:36:35;28.10;97.00
21487;DHT22;10905;50.822;4.336;2023-06-10T09:39:01;28.20;97.40
21487;DHT22;10905;50.822;4.336;2023-06-10T09:41:33;28.30;97.00
21487;DHT22;10905;50.822;4.336;2023-06-10T09:44:00;28.40;97.10
21487;DHT22;10905;50.822;4.336;2023-06-10T09:46:26;28.60;96.50
21487;DHT22;10905;50.822;4.336;2023-06-10T09:48:55;28.70;94.70
21487;DHT22;10905;50.822;4.336;2023-06-10T09:51:22;28.70;94.60
21487;DHT22;10905;50.822;4.336;2023-06-10T09:53:48;28.80;94.40
21487;DHT22;10905;50.822;4.336;2023-06-10T09:56:15;28.80;94.80
21487;DHT22;10905;50.822;4.336;2023-06-10T09:58:40;28.90;94.10
21487;DHT22;10905;50.822;4.336;2023-06-10T10:01:09;28.90;94.20
21487;DHT22;10905;50.822;4.336;2023-06-10T10:03:42;29.00;93.90
21487;DHT22;10905;50.822;4.336;2023-06-10T10:06:08;29.10;94.10
21487;DHT22;10905;50.822;4.336;2023-06-10T10:08:34;29.20;93.90
21487;DHT22;10905;50.822;4.336;2023-06-10T10:10:59;29.10;93.30
21487;DHT22;10905;50.822;4.336;2023-06-10T10:13:26;29.10;94.30
21487;DHT22;10905;50.822;4.336;2023-06-10T10:15:52;29.20;93.60
21487;DHT22;10905;50.822;4.336;2023-06-10T10:18:17;29.30;92.70
21487;DHT22;10905;50.822;4.336;2023-06-10T10:20:49;29.40;92.50
21487;DHT22;10905;50.822;4.336;2023-06-10T10:23:21;29.50;92.40
21487;DHT22;10905;50.822;4.336;2023-06-10T10:25:49;29.40;91.90
21487;DHT22;10905;50.822;4.336;2023-06-10T10:28:16;29.50;92.00
21487;DHT22;10905;50.822;4.336;2023-06-10T10:30:49;29.60;91.60
21487;DHT22;10905;50.822;4.336;2023-06-10T10:35:52;29.60;90.20
21487;DHT22;10905;50.822;4.336;2023-06-10T10:38:18;29.60;90.30
21487;DHT22;10905;50.822;4.336;2023-06-10T10:40:44;29.70;88.50
21487;DHT22;10905;50.822;4.336;2023-06-10T10:43:10;29.80;90.10
21487;DHT22;10905;50.822;4.336;2023-06-10T10:45:36;29.90;87.60
21487;DHT22;10905;50.822;4.336;2023-06-10T10:48:05;30.00;86.20
21487;DHT22;10905;50.822;4.336;2023-06-10T10:50:32;30.10;82.90
21487;DHT22;10905;50.822;4.336;2023-06-10T10:53:00;30.10;79.60
21487;DHT22;10905;50.822;4.336;2023-06-10T10:55:27;30.10;81.40
21487;DHT22;10905;50.822;4.336;2023-06-10T11:00:24;30.30;81.20
21487;DHT22;10905;50.822;4.336;2023-06-10T11:02:50;30.30;80.70
21487;DHT22;10905;50.822;4.336;2023-06-10T11:05:18;30.20;81.50
21487;DHT22;10905;50.822;4.336;2023-06-10T11:07:56;30.40;79.20
21487;DHT22;10905;50.822;4.336;2023-06-10T11:10:28;30.60;80.00
21487;DHT22;10905;50.822;4.336;2023-06-10T11:12:54;30.80;74.90
21487;DHT22;10905;50.822;4.336;2023-06-10T11:15:21;30.70;73.60
21487;DHT22;10905;50.822;4.336;2023-06-10T11:18:06;30.70;75.30
21487;DHT22;10905;50.822;4.336;2023-06-10T11:20:45;30.70;76.20
21487;DHT22;10905;50.822;4.336;2023-06-10T11:23:24;30.80;76.50
21487;DHT22;10905;50.822;4.336;2023-06-10T11:25:50;30.90;73.00
21487;DHT22;10905;50.822;4.336;2023-06-10T11:28:19;30.90;73.10
21487;DHT22;10905;50.822;4.336;2023-06-10T11:30:45;30.90;74.40
21487;DHT22;10905;50.822;4.336;2023-06-10T11:33:14;30.90;76.30
21487;DHT22;10905;50.822;4.336;2023-06-10T11:35:40;30.80;73.30
21487;DHT22;10905;50.822;4.336;2023-06-10T11:38:06;30.80;72.70
21487;DHT22;10905;50.822;4.336;2023-06-10T11:40:31;30.90;74.30
21487;DHT22;10905;50.822;4.336;2023-06-10T11:42:57;31.00;72.80
21487;DHT22;10905;50.822;4.336;2023-06-10T11:45:23;31.00;70.80
21487;DHT22;10905;50.822;4.336;2023-06-10T11:47:58;30.90;72.90
21487;DHT22;10905;50.822;4.336;2023-06-10T11:50:30;30.90;71.80
21487;DHT22;10905;50.822;4.336;2023-06-10T11:52:56;30.80;72.40
21487;DHT22;10905;50.822;4.336;2023-06-10T11:55:24;30.90;71.60
21487;DHT22;10905;50.822;4.336;2023-06-10T11:57:50;30.80;72.30
21487;DHT22;10905;50.822;4.336;2023-06-10T12:00:23;31.00;72.40
21487;DHT22;10905;50.822;4.336;2023-06-10T12:02:54;31.10;71.90
21487;DHT22;10905;50.822;4.336;2023-06-10T12:05:22;31.10;69.50
21487;DHT22;10905;50.822;4.336;2023-06-10T12:07:48;31.20;71.40
21487;DHT22;10905;50.822;4.336;2023-06-10T12:10:13;31.20;70.20
21487;DHT22;10905;50.822;4.336;2023-06-10T12:12:39;31.30;70.60
21487;DHT22;10905;50.822;4.336;2023-06-10T12:15:05;31.40;70.00
21487;DHT22;10905;50.822;4.336;2023-06-10T12:19:58;31.40;69.10
21487;DHT22;10905;50.822;4.336;2023-06-10T12:22:25;31.20;69.60
21487;DHT22;10905;50.822;4.336;2023-06-10T12:24:58;31.20;70.00
21487;DHT22;10905;50.822;4.336;2023-06-10T12:27:26;31.40;71.20
21487;DHT22;10905;50.822;4.336;2023-06-10T12:29:55;31.50;71.80
21487;DHT22;10905;50.822;4.336;2023-06-10T12:32:21;31.70;69.50
21487;DHT22;10905;50.822;4.336;2023-06-10T12:35:01;31.70;68.00
21487;DHT22;10905;50.822;4.336;2023-06-10T12:37:27;31.70;68.70
21487;DHT22;10905;50.822;4.336;2023-06-10T12:39:52;31.80;68.80
21487;DHT22;10905;50.822;4.336;2023-06-10T12:42:21;31.90;67.70
21487;DHT22;10905;50.822;4.336;2023-06-10T12:44:47;31.90;68.30
21487;DHT22;10905;50.822;4.336;2023-06-10T12:47:18;31.80;68.40
21487;DHT22;10905;50.822;4.336;2023-06-10T12:49:43;32.00;67.80
21487;DHT22;10905;50.822;4.336;2023-06-10T12:52:09;31.90;69.20
21487;DHT22;10905;50.822;4.336;2023-06-10T12:54:34;32.00;67.90
21487;DHT22;10905;50.822;4.336;2023-06-10T12:57:00;32.00;66.40
21487;DHT22;10905;50.822;4.336;2023-06-10T12:59:26;32.20;66.30
21487;DHT22;10905;50.822;4.336;2023-06-10T13:01:52;32.20;65.20
21487;DHT22;10905;50.822;4.336;2023-06-10T13:04:19;32.00;65.30
21487;DHT22;10905;50.822;4.336;2023-06-10T13:06:45;32.00;67.20
21487;DHT22;10905;50.822;4.336;2023-06-10T13:09:12;32.00;67.50
21487;DHT22;10905;50.822;4.336;2023-06-10T13:11:38;32.10;67.00
21487;DHT22;10905;50.822;4.336;2023-06-10T13:14:04;32.30;67.90
21487;DHT22;10905;50.822;4.336;2023-06-10T13:16:32;32.40;66.50
21487;DHT22;10905;50.822;4.336;2023-06-10T13:18:58;32.50;67.00
21487;DHT22;10905;50.822;4.336;2023-06-10T13:21:24;32.50;65.70
21487;DHT22;10905;50.822;4.336;2023-06-10T13:23:50;32.30;66.50
21487;DHT22;10905;50.822;4.336;2023-06-10T13:26:16;32.30;66.60
21487;DHT22;10905;50.822;4.336;2023-06-10T13:28:45;32.30;66.20
21487;DHT22;10905;50.822;4.336;2023-06-10T13:31:10;32.50;66.60
21487;DHT22;10905;50.822;4.336;2023-06-10T13:33:36;32.30;65.60
21487;DHT22;10905;50.822;4.336;2023-06-10T13:36:01;32.30;66.40
21487;DHT22;10905;50.822;4.336;2023-06-10T13:38:27;32.40;66.00
21487;DHT22;10905;50.822;4.336;2023-06-10T13:40:52;32.60;64.40
21487;DHT22;10905;50.822;4.336;2023-06-10T13:43:18;32.70;65.40
21487;DHT22;10905;50.822;4.336;2023-06-10T13:45:43;32.90;64.20
21487;DHT22;10905;50.822;4.336;2023-06-10T13:48:09;33.10;63.60
21487;DHT22;10905;50.822;4.336;2023-06-10T13:50:34;33.20;63.60
21487;DHT22;10905;50.822;4.336;2023-06-10T13:53:00;33.20;62.90
21487;DHT22;10905;50.822;4.336;2023-06-10T13:55:25;33.10;61.90
21487;DHT22;10905;50.822;4.336;2023-06-10T13:57:51;32.90;62.30
21487;DHT22;10905;50.822;4.336;2023-06-10T14:00:16;33.00;63.70
21487;DHT22;10905;50.822;4.336;2023-06-10T14:02:42;33.10;62.80
21487;DHT22;10905;50.822;4.336;2023-06-10T14:05:08;33.10;62.50
21487;DHT22;10905;50.822;4.336;2023-06-10T14:07:33;32.90;62.40
21487;DHT22;10905;50.822;4.336;2023-06-10T14:09:59;32.70;61.80
21487;DHT22;10905;50.822;4.336;2023-06-10T14:12:25;32.90;60.90
21487;DHT22;10905;50.822;4.336;2023-06-10T14:14:50;33.10;63.50
21487;DHT22;10905;50.822;4.336;2023-06-10T14:17:16;33.20;61.40
21487;DHT22;10905;50.822;4.336;2023-06-10T14:19:41;33.30;61.20
21487;DHT22;10905;50.822;4.336;2023-06-10T14:22:07;33.40;60.60
21487;DHT22;10905;50.822;4.336;2023-06-10T14:24:33;33.50;60.00
21487;DHT22;10905;50.822;4.336;2023-06-10T14:27:00;33.50;59.80
21487;DHT22;10905;50.822;4.336;2023-06-10T14:29:25;33.60;60.00
21487;DHT22;10905;50.822;4.336;2023-06-10T14:31:54;33.60;60.20
21487;DHT22;10905;50.822;4.336;2023-06-10T14:34:20;33.80;58.70
21487;DHT22;10905;50.822;4.336;2023-06-10T14:36:45;33.70;59.70
21487;DHT22;10905;50.822;4.336;2023-06-10T14:39:11;33.60;58.60
21487;DHT22;10905;50.822;4.336;2023-06-10T14:41:36;33.70;57.10
21487;DHT22;10905;50.822;4.336;2023-06-10T14:44:02;33.40;58.80
21487;DHT22;10905;50.822;4.336;2023-06-10T14:46:28;33.50;58.90
21487;DHT22;10905;50.822;4.336;2023-06-10T14:48:53;33.50;58.20
21487;DHT22;10905;50.822;4.336;2023-06-10T14:51:19;33.50;57.90
21487;DHT22;10905;50.822;4.336;2023-06-10T14:53:46;33.50;58.60
21487;DHT22;10905;50.822;4.336;2023-06-10T14:56:12;33.60;59.30
21487;DHT22;10905;50.822;4.336;2023-06-10T14:58:37;33.70;58.70
21487;DHT22;10905;50.822;4.336;2023-06-10T15:01:03;33.70;58.20
21487;DHT22;10905;50.822;4.336;2023-06-10T15:03:29;33.70;59.90
21487;DHT22;10905;50.822;4.336;2023-06-10T15:05:54;33.70;57.90
21487;DHT22;10905;50.822;4.336;2023-06-10T15:08:20;33.80;58.50
21487;DHT22;10905;50.822;4.336;2023-06-10T15:10:45;33.90;58.30
21487;DHT22;10905;50.822;4.336;2023-06-10T15:13:13;34.00;58.90
21487;DHT22;10905;50.822;4.336;2023-06-10T15:15:38;33.90;57.20
21487;DHT22;10905;50.822;4.336;2023-06-10T15:18:04;33.90;57.50
21487;DHT22;10905;50.822;4.336;2023-06-10T15:20:29;33.80;57.30
21487;DHT22;10905;50.822;4.336;2023-06-10T15:22:55;33.50;57.00
21487;DHT22;10905;50.822;4.336;2023-06-10T15:25:20;33.30;57.00
21487;DHT22;10905;50.822;4.336;2023-06-10T15:27:46;33.30;57.50
21487;DHT22;10905;50.822;4.336;2023-06-10T15:30:11;33.40;57.50
21487;DHT22;10905;50.822;4.336;2023-06-10T15:32:37;33.50;57.20
21487;DHT22;10905;50.822;4.336;2023-06-10T15:35:03;33.60;57.30
21487;DHT22;10905;50.822;4.336;2023-06-10T15:37:28;33.70;58.00
21487;DHT22;10905;50.822;4.336;2023-06-10T15:39:54;33.80;59.10